sensor_id;sensor_type;location;lat;lon;timestamp;P1;durP1;ratioP1;P2;durP2;ratioP2
65387;SDS011;51992;53.528;49.474;2022-08-23T00:01:13;22.85;;;9.88;;
65387;SDS011;51992;53.528;49.474;2022-08-23T00:03:40;21.08;;;10.32;;
65387;SDS011;51992;53.528;49.474;2022-08-23T00:06:07;21.20;;;9.63;;
65387;SDS011;51992;53.528;49.474;2022-08-23T00:08:33;18.48;;;9.38;;
65387;SDS011;51992;53.528;49.474;2022-08-23T00:10:58;20.35;;;9.20;;
65387;SDS011;51992;53.528;49.474;2022-08-23T00:13:25;18.33;;;10.15;;
65387;SDS011;51992;53.528;49.474;2022-08-23T00:15:51;16.10;;;9.95;;
65387;SDS011;51992;53.528;49.474;2022-08-23T00:18:16;21.83;;;9.20;;
65387;SDS011;51992;53.528;49.474;2022-08-23T00:20:43;17.73;;;8.90;;
65387;SDS011;51992;53.528;49.474;2022-08-23T00:23:09;22.63;;;10.10;;
65387;SDS011;51992;53.528;49.474;2022-08-23T00:25:35;18.30;;;9.55;;
65387;SDS011;51992;53.528;49.474;2022-08-23T00:28:00;18.63;;;9.13;;
65387;SDS011;51992;53.528;49.474;2022-08-23T00:30:26;17.58;;;9.60;;
65387;SDS011;51992;53.528;49.474;2022-08-23T00:32:52;18.58;;;9.27;;
65387;SDS011;51992;53.528;49.474;2022-08-23T00:35:18;20.48;;;9.50;;
65387;SDS011;51992;53.528;49.474;2022-08-23T00:37:45;17.92;;;9.60;;
65387;SDS011;51992;53.528;49.474;2022-08-23T00:40:12;19.65;;;9.48;;
65387;SDS011;51992;53.528;49.474;2022-08-23T00:42:52;17.05;;;9.63;;
65387;SDS011;51992;53.528;49.474;2022-08-23T00:45:38;19.10;;;8.80;;
65387;SDS011;51992;53.528;49.474;2022-08-23T00:48:24;14.20;;;8.82;;
65387;SDS011;51992;53.528;49.474;2022-08-23T00:51:12;14.63;;;9.30;;
65387;SDS011;51992;53.528;49.474;2022-08-23T00:53:40;18.40;;;9.60;;
65387;SDS011;51992;53.528;49.474;2022-08-23T00:56:08;24.90;;;9.32;;
65387;SDS011;51992;53.528;49.474;2022-08-23T00:58:34;14.90;;;9.20;;
65387;SDS011;51992;53.528;49.474;2022-08-23T01:01:00;17.27;;;8.77;;
65387;SDS011;51992;53.528;49.474;2022-08-23T01:03:28;16.95;;;9.50;;
65387;SDS011;51992;53.528;49.474;2022-08-23T01:08:36;15.27;;;9.02;;
65387;SDS011;51992;53.528;49.474;2022-08-23T01:11:07;17.25;;;9.70;;
65387;SDS011;51992;53.528;49.474;2022-08-23T01:13:36;27.23;;;9.73;;
65387;SDS011;51992;53.528;49.474;2022-08-23T01:16:09;16.33;;;10.00;;
65387;SDS011;51992;53.528;49.474;2022-08-23T01:18:36;24.77;;;9.95;;
65387;SDS011;51992;53.528;49.474;2022-08-23T01:26:03;20.42;;;9.45;;
65387;SDS011;51992;53.528;49.474;2022-08-23T01:28:29;19.17;;;9.45;;
65387;SDS011;51992;53.528;49.474;2022-08-23T01:30:55;14.90;;;9.57;;
65387;SDS011;51992;53.528;49.474;2022-08-23T01:33:21;18.10;;;9.13;;
65387;SDS011;51992;53.528;49.474;2022-08-23T01:35:48;23.23;;;9.85;;
65387;SDS011;51992;53.528;49.474;2022-08-23T01:38:15;27.85;;;10.10;;
65387;SDS011;51992;53.528;49.474;2022-08-23T01:40:41;18.95;;;10.45;;
65387;SDS011;51992;53.528;49.474;2022-08-23T01:43:07;23.33;;;9.55;;
65387;SDS011;51992;53.528;49.474;2022-08-23T01:45:33;20.67;;;10.43;;
65387;SDS011;51992;53.528;49.474;2022-08-23T01:47:59;31.70;;;10.48;;
65387;SDS011;51992;53.528;49.474;2022-08-23T01:50:26;24.83;;;10.52;;
65387;SDS011;51992;53.528;49.474;2022-08-23T01:52:52;33.00;;;10.45;;
65387;SDS011;51992;53.528;49.474;2022-08-23T01:55:18;34.85;;;11.77;;
65387;SDS011;51992;53.528;49.474;2022-08-23T01:57:44;38.47;;;11.50;;
65387;SDS011;51992;53.528;49.474;2022-08-23T02:00:11;38.42;;;11.90;;
65387;SDS011;51992;53.528;49.474;2022-08-23T02:02:37;41.25;;;11.80;;
65387;SDS011;51992;53.528;49.474;2022-08-23T02:05:04;34.35;;;12.20;;
65387;SDS011;51992;53.528;49.474;2022-08-23T02:07:29;41.72;;;11.68;;
65387;SDS011;51992;53.528;49.474;2022-08-23T02:09:55;39.72;;;12.02;;
65387;SDS011;51992;53.528;49.474;2022-08-23T02:12:21;31.98;;;10.98;;
65387;SDS011;51992;53.528;49.474;2022-08-23T02:14:47;28.20;;;11.10;;
65387;SDS011;51992;53.528;49.474;2022-08-23T02:17:13;25.42;;;11.00;;
65387;SDS011;51992;53.528;49.474;2022-08-23T02:19:40;21.95;;;10.93;;
65387;SDS011;51992;53.528;49.474;2022-08-23T02:22:07;33.97;;;10.65;;
65387;SDS011;51992;53.528;49.474;2022-08-23T02:24:33;29.27;;;12.82;;
65387;SDS011;51992;53.528;49.474;2022-08-23T02:27:00;39.78;;;13.88;;
65387;SDS011;51992;53.528;49.474;2022-08-23T02:29:26;24.95;;;11.93;;
65387;SDS011;51992;53.528;49.474;2022-08-23T02:31:54;17.25;;;10.52;;
65387;SDS011;51992;53.528;49.474;2022-08-23T02:34:20;18.13;;;10.70;;
65387;SDS011;51992;53.528;49.474;2022-08-23T02:36:45;30.15;;;12.10;;
65387;SDS011;51992;53.528;49.474;2022-08-23T02:39:14;36.10;;;13.10;;
65387;SDS011;51992;53.528;49.474;2022-08-23T02:41:40;25.60;;;11.85;;
65387;SDS011;51992;53.528;49.474;2022-08-23T02:44:06;35.13;;;12.50;;
65387;SDS011;51992;53.528;49.474;2022-08-23T02:46:31;23.95;;;12.75;;
65387;SDS011;51992;53.528;49.474;2022-08-23T02:48:58;27.33;;;12.70;;
65387;SDS011;51992;53.528;49.474;2022-08-23T02:51:24;25.88;;;13.35;;
65387;SDS011;51992;53.528;49.474;2022-08-23T02:53:50;26.02;;;13.32;;
65387;SDS011;51992;53.528;49.474;2022-08-23T02:56:16;32.00;;;14.50;;
65387;SDS011;51992;53.528;49.474;2022-08-23T02:58:42;38.88;;;15.43;;
65387;SDS011;51992;53.528;49.474;2022-08-23T03:01:16;30.60;;;14.85;;
65387;SDS011;51992;53.528;49.474;2022-08-23T03:03:42;23.50;;;13.60;;
65387;SDS011;51992;53.528;49.474;2022-08-23T03:06:08;28.00;;;13.80;;
65387;SDS011;51992;53.528;49.474;2022-08-23T03:08:34;33.47;;;13.50;;
65387;SDS011;51992;53.528;49.474;2022-08-23T03:10:59;30.02;;;14.05;;
65387;SDS011;51992;53.528;49.474;2022-08-23T03:13:25;32.95;;;13.55;;
65387;SDS011;51992;53.528;49.474;2022-08-23T03:15:51;29.92;;;13.32;;
65387;SDS011;51992;53.528;49.474;2022-08-23T03:18:17;32.40;;;13.75;;
65387;SDS011;51992;53.528;49.474;2022-08-23T03:20:43;42.33;;;15.63;;
65387;SDS011;51992;53.528;49.474;2022-08-23T03:23:09;40.10;;;14.25;;
65387;SDS011;51992;53.528;49.474;2022-08-23T03:25:35;35.60;;;14.60;;
65387;SDS011;51992;53.528;49.474;2022-08-23T03:28:01;46.97;;;15.05;;
65387;SDS011;51992;53.528;49.474;2022-08-23T03:30:29;44.38;;;13.50;;
65387;SDS011;51992;53.528;49.474;2022-08-23T03:32:54;37.78;;;14.73;;
65387;SDS011;51992;53.528;49.474;2022-08-23T03:35:20;33.70;;;15.25;;
65387;SDS011;51992;53.528;49.474;2022-08-23T03:37:46;35.00;;;15.80;;
65387;SDS011;51992;53.528;49.474;2022-08-23T03:40:12;33.67;;;16.05;;
65387;SDS011;51992;53.528;49.474;2022-08-23T03:42:38;28.17;;;15.82;;
65387;SDS011;51992;53.528;49.474;2022-08-23T03:45:03;34.13;;;16.75;;
65387;SDS011;51992;53.528;49.474;2022-08-23T03:47:29;29.58;;;15.60;;
65387;SDS011;51992;53.528;49.474;2022-08-23T03:49:55;24.20;;;16.38;;
65387;SDS011;51992;53.528;49.474;2022-08-23T03:52:22;27.27;;;17.25;;
65387;SDS011;51992;53.528;49.474;2022-08-23T03:54:48;30.05;;;20.27;;
65387;SDS011;51992;53.528;49.474;2022-08-23T03:57:14;36.95;;;22.25;;
65387;SDS011;51992;53.528;49.474;2022-08-23T03:59:40;42.15;;;21.50;;
65387;SDS011;51992;53.528;49.474;2022-08-23T04:02:07;31.13;;;18.25;;
65387;SDS011;51992;53.528;49.474;2022-08-23T04:04:33;29.90;;;18.50;;
65387;SDS011;51992;53.528;49.474;2022-08-23T04:06:59;36.13;;;16.55;;
65387;SDS011;51992;53.528;49.474;2022-08-23T04:09:24;25.92;;;13.32;;
65387;SDS011;51992;53.528;49.474;2022-08-23T04:11:50;22.60;;;13.85;;
65387;SDS011;51992;53.528;49.474;2022-08-23T04:14:16;19.92;;;11.80;;
65387;SDS011;51992;53.528;49.474;2022-08-23T04:16:42;24.98;;;11.43;;
65387;SDS011;51992;53.528;49.474;2022-08-23T04:19:10;25.05;;;12.13;;
65387;SDS011;51992;53.528;49.474;2022-08-23T04:21:39;22.88;;;12.13;;
65387;SDS011;51992;53.528;49.474;2022-08-23T04:24:07;30.05;;;12.20;;
65387;SDS011;51992;53.528;49.474;2022-08-23T04:26:32;27.23;;;11.40;;
65387;SDS011;51992;53.528;49.474;2022-08-23T04:28:58;24.52;;;13.35;;
65387;SDS011;51992;53.528;49.474;2022-08-23T04:31:24;21.23;;;12.82;;
65387;SDS011;51992;53.528;49.474;2022-08-23T04:33:54;26.80;;;11.80;;
65387;SDS011;51992;53.528;49.474;2022-08-23T04:36:21;32.70;;;11.32;;
65387;SDS011;51992;53.528;49.474;2022-08-23T04:38:47;18.17;;;12.07;;
65387;SDS011;51992;53.528;49.474;2022-08-23T04:41:13;17.08;;;11.25;;
65387;SDS011;51992;53.528;49.474;2022-08-23T04:43:57;23.23;;;11.30;;
65387;SDS011;51992;53.528;49.474;2022-08-23T04:46:23;16.08;;;10.02;;
65387;SDS011;51992;53.528;49.474;2022-08-23T04:48:49;18.25;;;10.50;;
65387;SDS011;51992;53.528;49.474;2022-08-23T04:51:14;25.35;;;10.90;;
65387;SDS011;51992;53.528;49.474;2022-08-23T04:53:41;19.38;;;10.35;;
65387;SDS011;51992;53.528;49.474;2022-08-23T04:56:08;22.75;;;10.75;;
65387;SDS011;51992;53.528;49.474;2022-08-23T04:58:34;23.20;;;10.93;;
65387;SDS011;51992;53.528;49.474;2022-08-23T05:01:01;25.08;;;12.15;;
65387;SDS011;51992;53.528;49.474;2022-08-23T05:03:28;16.85;;;11.07;;
65387;SDS011;51992;53.528;49.474;2022-08-23T05:05:54;20.40;;;10.80;;
65387;SDS011;51992;53.528;49.474;2022-08-23T05:08:19;40.00;;;12.88;;
65387;SDS011;51992;53.528;49.474;2022-08-23T05:10:45;24.98;;;11.35;;
65387;SDS011;51992;53.528;49.474;2022-08-23T05:13:11;25.20;;;10.80;;
65387;SDS011;51992;53.528;49.474;2022-08-23T05:15:37;23.63;;;11.35;;
65387;SDS011;51992;53.528;49.474;2022-08-23T05:18:04;19.58;;;11.00;;
65387;SDS011;51992;53.528;49.474;2022-08-23T05:20:29;24.80;;;13.25;;
65387;SDS011;51992;53.528;49.474;2022-08-23T05:22:55;28.65;;;12.20;;
65387;SDS011;51992;53.528;49.474;2022-08-23T05:25:21;30.45;;;12.07;;
65387;SDS011;51992;53.528;49.474;2022-08-23T05:27:47;17.92;;;11.63;;
65387;SDS011;51992;53.528;49.474;2022-08-23T05:30:12;21.23;;;11.00;;
65387;SDS011;51992;53.528;49.474;2022-08-23T05:32:38;26.05;;;11.63;;
65387;SDS011;51992;53.528;49.474;2022-08-23T05:35:04;21.25;;;10.73;;
65387;SDS011;51992;53.528;49.474;2022-08-23T05:37:30;17.00;;;11.00;;
65387;SDS011;51992;53.528;49.474;2022-08-23T05:39:56;19.27;;;11.02;;
65387;SDS011;51992;53.528;49.474;2022-08-23T05:42:25;229.30;;;25.50;;
65387;SDS011;51992;53.528;49.474;2022-08-23T05:44:51;66.38;;;14.40;;
65387;SDS011;51992;53.528;49.474;2022-08-23T05:47:18;29.23;;;11.07;;
65387;SDS011;51992;53.528;49.474;2022-08-23T05:49:44;38.60;;;13.73;;
65387;SDS011;51992;53.528;49.474;2022-08-23T05:52:11;22.20;;;12.23;;
65387;SDS011;51992;53.528;49.474;2022-08-23T05:54:37;35.30;;;12.40;;
65387;SDS011;51992;53.528;49.474;2022-08-23T05:57:03;21.10;;;10.68;;
65387;SDS011;51992;53.528;49.474;2022-08-23T05:59:29;19.50;;;11.25;;
65387;SDS011;51992;53.528;49.474;2022-08-23T06:01:55;19.98;;;10.70;;
65387;SDS011;51992;53.528;49.474;2022-08-23T06:04:22;23.30;;;12.43;;
65387;SDS011;51992;53.528;49.474;2022-08-23T06:06:48;45.13;;;14.52;;
65387;SDS011;51992;53.528;49.474;2022-08-23T06:09:14;42.35;;;14.25;;
65387;SDS011;51992;53.528;49.474;2022-08-23T06:11:41;31.13;;;15.13;;
65387;SDS011;51992;53.528;49.474;2022-08-23T06:14:07;25.05;;;14.82;;
65387;SDS011;51992;53.528;49.474;2022-08-23T06:16:35;28.67;;;14.40;;
65387;SDS011;51992;53.528;49.474;2022-08-23T06:19:01;26.30;;;16.38;;
65387;SDS011;51992;53.528;49.474;2022-08-23T06:21:27;20.65;;;15.80;;
65387;SDS011;51992;53.528;49.474;2022-08-23T06:23:54;92.03;;;17.98;;
65387;SDS011;51992;53.528;49.474;2022-08-23T06:28:46;33.28;;;20.88;;
65387;SDS011;51992;53.528;49.474;2022-08-23T06:31:13;35.40;;;17.38;;
65387;SDS011;51992;53.528;49.474;2022-08-23T06:33:42;39.95;;;14.15;;
65387;SDS011;51992;53.528;49.474;2022-08-23T06:36:11;25.92;;;14.82;;
65387;SDS011;51992;53.528;49.474;2022-08-23T06:38:38;22.25;;;14.02;;
65387;SDS011;51992;53.528;49.474;2022-08-23T06:41:06;36.33;;;13.88;;
65387;SDS011;51992;53.528;49.474;2022-08-23T06:43:32;25.88;;;14.02;;
65387;SDS011;51992;53.528;49.474;2022-08-23T06:48:33;22.92;;;14.35;;
65387;SDS011;51992;53.528;49.474;2022-08-23T06:50:59;22.50;;;15.48;;
65387;SDS011;51992;53.528;49.474;2022-08-23T06:53:25;30.00;;;15.02;;
65387;SDS011;51992;53.528;49.474;2022-08-23T06:55:50;21.88;;;14.80;;
65387;SDS011;51992;53.528;49.474;2022-08-23T06:58:16;21.92;;;13.10;;
65387;SDS011;51992;53.528;49.474;2022-08-23T07:00:42;17.20;;;10.07;;
65387;SDS011;51992;53.528;49.474;2022-08-23T07:03:07;14.68;;;9.55;;
65387;SDS011;51992;53.528;49.474;2022-08-23T07:05:33;18.45;;;9.48;;
65387;SDS011;51992;53.528;49.474;2022-08-23T07:07:59;18.67;;;8.15;;
65387;SDS011;51992;53.528;49.474;2022-08-23T07:10:25;25.58;;;8.15;;
65387;SDS011;51992;53.528;49.474;2022-08-23T07:12:50;17.95;;;7.28;;
65387;SDS011;51992;53.528;49.474;2022-08-23T07:15:16;19.80;;;7.55;;
65387;SDS011;51992;53.528;49.474;2022-08-23T07:17:42;19.15;;;7.18;;
65387;SDS011;51992;53.528;49.474;2022-08-23T07:20:08;11.95;;;5.72;;
65387;SDS011;51992;53.528;49.474;2022-08-23T07:22:34;36.40;;;6.93;;
65387;SDS011;51992;53.528;49.474;2022-08-23T07:25:00;22.45;;;6.75;;
65387;SDS011;51992;53.528;49.474;2022-08-23T07:27:26;21.77;;;7.57;;
65387;SDS011;51992;53.528;49.474;2022-08-23T07:29:52;16.00;;;6.78;;
65387;SDS011;51992;53.528;49.474;2022-08-23T07:32:17;46.72;;;9.18;;
65387;SDS011;51992;53.528;49.474;2022-08-23T07:34:43;20.70;;;7.18;;
65387;SDS011;51992;53.528;49.474;2022-08-23T07:37:09;8.18;;;5.38;;
65387;SDS011;51992;53.528;49.474;2022-08-23T07:39:35;13.63;;;6.50;;
65387;SDS011;51992;53.528;49.474;2022-08-23T07:42:01;7.03;;;5.72;;
65387;SDS011;51992;53.528;49.474;2022-08-23T07:44:28;8.77;;;5.47;;
65387;SDS011;51992;53.528;49.474;2022-08-23T07:46:54;11.00;;;5.65;;
65387;SDS011;51992;53.528;49.474;2022-08-23T07:49:20;15.60;;;5.25;;
65387;SDS011;51992;53.528;49.474;2022-08-23T07:51:47;8.43;;;5.93;;
65387;SDS011;51992;53.528;49.474;2022-08-23T07:54:13;17.20;;;6.10;;
65387;SDS011;51992;53.528;49.474;2022-08-23T07:56:39;11.68;;;5.43;;
65387;SDS011;51992;53.528;49.474;2022-08-23T07:59:05;9.18;;;5.93;;
65387;SDS011;51992;53.528;49.474;2022-08-23T08:01:31;8.77;;;5.90;;
65387;SDS011;51992;53.528;49.474;2022-08-23T08:03:57;8.30;;;5.68;;
65387;SDS011;51992;53.528;49.474;2022-08-23T08:08:49;16.17;;;6.65;;
65387;SDS011;51992;53.528;49.474;2022-08-23T08:11:16;10.68;;;6.00;;
65387;SDS011;51992;53.528;49.474;2022-08-23T08:13:43;6.40;;;5.70;;
65387;SDS011;51992;53.528;49.474;2022-08-23T08:16:09;9.23;;;6.10;;
65387;SDS011;51992;53.528;49.474;2022-08-23T08:18:36;7.82;;;6.20;;
65387;SDS011;51992;53.528;49.474;2022-08-23T08:21:02;30.52;;;7.88;;
65387;SDS011;51992;53.528;49.474;2022-08-23T08:23:28;30.50;;;9.65;;
65387;SDS011;51992;53.528;49.474;2022-08-23T08:25:58;15.48;;;6.68;;
65387;SDS011;51992;53.528;49.474;2022-08-23T08:28:25;12.23;;;4.90;;
65387;SDS011;51992;53.528;49.474;2022-08-23T08:30:51;17.27;;;5.85;;
65387;SDS011;51992;53.528;49.474;2022-08-23T08:33:17;7.95;;;5.95;;
65387;SDS011;51992;53.528;49.474;2022-08-23T08:35:45;12.85;;;5.22;;
65387;SDS011;51992;53.528;49.474;2022-08-23T08:38:11;11.20;;;5.35;;
65387;SDS011;51992;53.528;49.474;2022-08-23T08:40:37;13.88;;;5.68;;
65387;SDS011;51992;53.528;49.474;2022-08-23T08:43:11;14.43;;;6.70;;
65387;SDS011;51992;53.528;49.474;2022-08-23T08:45:44;6.78;;;3.75;;
65387;SDS011;51992;53.528;49.474;2022-08-23T08:48:14;12.32;;;6.47;;
65387;SDS011;51992;53.528;49.474;2022-08-23T08:50:47;14.98;;;4.93;;
65387;SDS011;51992;53.528;49.474;2022-08-23T08:56:01;10.95;;;6.15;;
65387;SDS011;51992;53.528;49.474;2022-08-23T08:58:41;10.80;;;5.72;;
65387;SDS011;51992;53.528;49.474;2022-08-23T09:01:07;14.38;;;6.32;;
65387;SDS011;51992;53.528;49.474;2022-08-23T09:03:34;20.25;;;6.43;;
65387;SDS011;51992;53.528;49.474;2022-08-23T09:14:01;10.15;;;6.75;;
65387;SDS011;51992;53.528;49.474;2022-08-23T09:16:48;9.07;;;6.15;;
65387;SDS011;51992;53.528;49.474;2022-08-23T09:19:15;9.77;;;6.30;;
65387;SDS011;51992;53.528;49.474;2022-08-23T09:21:48;8.50;;;6.75;;
65387;SDS011;51992;53.528;49.474;2022-08-23T09:24:14;8.98;;;6.38;;
65387;SDS011;51992;53.528;49.474;2022-08-23T09:26:40;8.90;;;6.30;;
65387;SDS011;51992;53.528;49.474;2022-08-23T09:29:13;13.82;;;6.35;;
65387;SDS011;51992;53.528;49.474;2022-08-23T09:31:45;9.32;;;6.45;;
65387;SDS011;51992;53.528;49.474;2022-08-23T09:34:38;13.40;;;6.65;;
65387;SDS011;51992;53.528;49.474;2022-08-23T09:37:15;9.40;;;6.22;;
65387;SDS011;51992;53.528;49.474;2022-08-23T09:39:46;9.93;;;6.05;;
65387;SDS011;51992;53.528;49.474;2022-08-23T09:42:28;10.25;;;5.75;;
65387;SDS011;51992;53.528;49.474;2022-08-23T09:44:54;16.60;;;7.45;;
65387;SDS011;51992;53.528;49.474;2022-08-23T09:47:22;8.85;;;6.68;;
65387;SDS011;51992;53.528;49.474;2022-08-23T09:49:54;10.98;;;6.43;;
65387;SDS011;51992;53.528;49.474;2022-08-23T09:52:34;13.48;;;6.80;;
65387;SDS011;51992;53.528;49.474;2022-08-23T09:55:02;13.35;;;6.45;;
65387;SDS011;51992;53.528;49.474;2022-08-23T09:57:30;9.20;;;6.03;;
65387;SDS011;51992;53.528;49.474;2022-08-23T10:00:38;15.30;;;6.68;;
65387;SDS011;51992;53.528;49.474;2022-08-23T10:02:45;10.93;;;6.28;;
65387;SDS011;51992;53.528;49.474;2022-08-23T10:07:41;11.98;;;6.80;;
65387;SDS011;51992;53.528;49.474;2022-08-23T10:10:52;20.52;;;6.80;;
65387;SDS011;51992;53.528;49.474;2022-08-23T10:12:53;15.77;;;6.63;;
65387;SDS011;51992;53.528;49.474;2022-08-23T10:15:22;13.85;;;5.90;;
65387;SDS011;51992;53.528;49.474;2022-08-23T10:17:58;14.63;;;6.63;;
65387;SDS011;51992;53.528;49.474;2022-08-23T10:20:38;9.80;;;5.85;;
65387;SDS011;51992;53.528;49.474;2022-08-23T10:25:45;9.57;;;6.43;;
65387;SDS011;51992;53.528;49.474;2022-08-23T10:33:56;7.85;;;6.32;;
65387;SDS011;51992;53.528;49.474;2022-08-23T10:36:30;10.95;;;5.80;;
65387;SDS011;51992;53.528;49.474;2022-08-23T10:38:58;7.30;;;6.28;;
65387;SDS011;51992;53.528;49.474;2022-08-23T10:44:18;7.20;;;5.45;;
65387;SDS011;51992;53.528;49.474;2022-08-23T10:49:18;13.23;;;6.40;;
65387;SDS011;51992;53.528;49.474;2022-08-23T10:51:45;39.78;;;7.53;;
65387;SDS011;51992;53.528;49.474;2022-08-23T10:54:17;16.60;;;6.57;;
65387;SDS011;51992;53.528;49.474;2022-08-23T10:56:43;9.48;;;5.10;;
65387;SDS011;51992;53.528;49.474;2022-08-23T10:59:13;10.00;;;5.45;;
65387;SDS011;51992;53.528;49.474;2022-08-23T11:12:28;23.13;;;7.03;;
65387;SDS011;51992;53.528;49.474;2022-08-23T11:17:23;20.33;;;5.85;;
65387;SDS011;51992;53.528;49.474;2022-08-23T11:19:51;31.60;;;6.72;;
65387;SDS011;51992;53.528;49.474;2022-08-23T11:22:21;14.88;;;5.95;;
65387;SDS011;51992;53.528;49.474;2022-08-23T11:24:49;7.75;;;5.47;;
65387;SDS011;51992;53.528;49.474;2022-08-23T11:27:25;12.70;;;5.78;;
65387;SDS011;51992;53.528;49.474;2022-08-23T11:29:51;14.77;;;5.82;;
65387;SDS011;51992;53.528;49.474;2022-08-23T11:32:21;8.88;;;4.95;;
65387;SDS011;51992;53.528;49.474;2022-08-23T11:34:52;17.00;;;5.75;;
65387;SDS011;51992;53.528;49.474;2022-08-23T11:37:24;8.85;;;5.35;;
65387;SDS011;51992;53.528;49.474;2022-08-23T11:42:42;56.13;;;8.73;;
65387;SDS011;51992;53.528;49.474;2022-08-23T11:48:07;28.52;;;7.68;;
65387;SDS011;51992;53.528;49.474;2022-08-23T11:50:46;14.65;;;6.07;;
65387;SDS011;51992;53.528;49.474;2022-08-23T11:58:51;9.07;;;5.50;;
65387;SDS011;51992;53.528;49.474;2022-08-23T12:01:28;17.63;;;6.03;;
65387;SDS011;51992;53.528;49.474;2022-08-23T12:03:56;19.38;;;6.55;;
65387;SDS011;51992;53.528;49.474;2022-08-23T12:06:35;13.48;;;6.30;;
65387;SDS011;51992;53.528;49.474;2022-08-23T12:09:09;17.67;;;6.00;;
65387;SDS011;51992;53.528;49.474;2022-08-23T12:14:31;19.55;;;6.00;;
65387;SDS011;51992;53.528;49.474;2022-08-23T12:22:51;29.27;;;6.57;;
65387;SDS011;51992;53.528;49.474;2022-08-23T12:25:19;21.90;;;5.75;;
65387;SDS011;51992;53.528;49.474;2022-08-23T12:27:54;18.20;;;6.63;;
65387;SDS011;51992;53.528;49.474;2022-08-23T12:30:28;8.93;;;5.13;;
65387;SDS011;51992;53.528;49.474;2022-08-23T12:35:30;12.73;;;5.30;;
65387;SDS011;51992;53.528;49.474;2022-08-23T12:40:32;11.82;;;5.00;;
65387;SDS011;51992;53.528;49.474;2022-08-23T12:45:42;29.65;;;7.43;;
65387;SDS011;51992;53.528;49.474;2022-08-23T12:48:09;14.02;;;6.22;;
65387;SDS011;51992;53.528;49.474;2022-08-23T12:50:37;6.80;;;4.75;;
65387;SDS011;51992;53.528;49.474;2022-08-23T12:53:08;26.33;;;8.63;;
65387;SDS011;51992;53.528;49.474;2022-08-23T12:57:59;26.30;;;5.53;;
65387;SDS011;51992;53.528;49.474;2022-08-23T13:00:30;15.38;;;5.75;;
65387;SDS011;51992;53.528;49.474;2022-08-23T13:03:00;13.75;;;5.07;;
65387;SDS011;51992;53.528;49.474;2022-08-23T13:05:36;8.00;;;4.72;;
65387;SDS011;51992;53.528;49.474;2022-08-23T13:08:04;8.30;;;5.00;;
65387;SDS011;51992;53.528;49.474;2022-08-23T13:10:31;7.75;;;4.25;;
65387;SDS011;51992;53.528;49.474;2022-08-23T13:12:57;23.02;;;5.65;;
65387;SDS011;51992;53.528;49.474;2022-08-23T13:18:07;10.13;;;4.50;;
65387;SDS011;51992;53.528;49.474;2022-08-23T13:20:33;15.45;;;5.25;;
65387;SDS011;51992;53.528;49.474;2022-08-23T13:23:03;9.77;;;4.68;;
65387;SDS011;51992;53.528;49.474;2022-08-23T13:25:34;17.77;;;5.65;;
65387;SDS011;51992;53.528;49.474;2022-08-23T13:28:18;20.17;;;5.35;;
65387;SDS011;51992;53.528;49.474;2022-08-23T13:30:56;20.55;;;5.82;;
65387;SDS011;51992;53.528;49.474;2022-08-23T13:33:22;9.13;;;4.90;;
65387;SDS011;51992;53.528;49.474;2022-08-23T13:35:48;52.50;;;7.60;;
65387;SDS011;51992;53.528;49.474;2022-08-23T13:38:17;41.17;;;7.57;;
65387;SDS011;51992;53.528;49.474;2022-08-23T13:40:55;10.50;;;5.18;;
65387;SDS011;51992;53.528;49.474;2022-08-23T13:43:32;10.13;;;5.05;;
65387;SDS011;51992;53.528;49.474;2022-08-23T13:46:11;18.52;;;5.35;;
65387;SDS011;51992;53.528;49.474;2022-08-23T13:48:39;28.48;;;6.50;;
65387;SDS011;51992;53.528;49.474;2022-08-23T13:51:19;16.02;;;5.30;;
65387;SDS011;51992;53.528;49.474;2022-08-23T13:53:45;9.40;;;5.45;;
65387;SDS011;51992;53.528;49.474;2022-08-23T13:56:11;14.18;;;5.57;;
65387;SDS011;51992;53.528;49.474;2022-08-23T13:58:38;12.20;;;5.47;;
65387;SDS011;51992;53.528;49.474;2022-08-23T14:01:09;17.45;;;5.80;;
65387;SDS011;51992;53.528;49.474;2022-08-23T14:03:37;10.38;;;5.85;;
65387;SDS011;51992;53.528;49.474;2022-08-23T14:06:02;20.10;;;6.60;;
65387;SDS011;51992;53.528;49.474;2022-08-23T14:08:28;27.33;;;7.07;;
65387;SDS011;51992;53.528;49.474;2022-08-23T14:10:54;12.93;;;5.82;;
65387;SDS011;51992;53.528;49.474;2022-08-23T14:13:19;25.63;;;6.70;;
65387;SDS011;51992;53.528;49.474;2022-08-23T14:15:48;20.77;;;6.70;;
65387;SDS011;51992;53.528;49.474;2022-08-23T14:18:14;26.95;;;6.55;;
65387;SDS011;51992;53.528;49.474;2022-08-23T14:20:40;10.60;;;5.10;;
65387;SDS011;51992;53.528;49.474;2022-08-23T14:23:06;16.58;;;6.30;;
65387;SDS011;51992;53.528;49.474;2022-08-23T14:25:31;12.63;;;6.65;;
65387;SDS011;51992;53.528;49.474;2022-08-23T14:27:58;9.45;;;6.28;;
65387;SDS011;51992;53.528;49.474;2022-08-23T14:30:25;13.50;;;6.50;;
65387;SDS011;51992;53.528;49.474;2022-08-23T14:32:51;9.45;;;6.22;;
65387;SDS011;51992;53.528;49.474;2022-08-23T14:35:17;12.65;;;7.18;;
65387;SDS011;51992;53.528;49.474;2022-08-23T14:37:42;11.15;;;6.93;;
65387;SDS011;51992;53.528;49.474;2022-08-23T14:40:08;11.95;;;6.32;;
65387;SDS011;51992;53.528;49.474;2022-08-23T14:42:34;13.25;;;6.43;;
65387;SDS011;51992;53.528;49.474;2022-08-23T14:45:00;11.13;;;7.00;;
65387;SDS011;51992;53.528;49.474;2022-08-23T14:47:26;12.77;;;6.93;;
65387;SDS011;51992;53.528;49.474;2022-08-23T14:49:52;21.33;;;7.60;;
65387;SDS011;51992;53.528;49.474;2022-08-23T14:52:17;15.25;;;6.60;;
65387;SDS011;51992;53.528;49.474;2022-08-23T14:54:43;27.92;;;7.55;;
65387;SDS011;51992;53.528;49.474;2022-08-23T14:57:09;13.50;;;6.25;;
65387;SDS011;51992;53.528;49.474;2022-08-23T14:59:35;20.52;;;6.75;;
65387;SDS011;51992;53.528;49.474;2022-08-23T15:02:01;16.85;;;6.53;;
65387;SDS011;51992;53.528;49.474;2022-08-23T15:04:27;19.08;;;7.63;;
65387;SDS011;51992;53.528;49.474;2022-08-23T15:06:53;15.88;;;6.75;;
65387;SDS011;51992;53.528;49.474;2022-08-23T15:09:20;15.07;;;6.75;;
65387;SDS011;51992;53.528;49.474;2022-08-23T15:11:46;13.77;;;6.85;;
65387;SDS011;51992;53.528;49.474;2022-08-23T15:14:12;21.75;;;6.88;;
65387;SDS011;51992;53.528;49.474;2022-08-23T15:16:38;23.85;;;7.07;;
65387;SDS011;51992;53.528;49.474;2022-08-23T15:19:04;33.55;;;7.47;;
65387;SDS011;51992;53.528;49.474;2022-08-23T15:21:30;34.40;;;7.18;;
65387;SDS011;51992;53.528;49.474;2022-08-23T15:23:56;24.77;;;7.25;;
65387;SDS011;51992;53.528;49.474;2022-08-23T15:26:23;25.73;;;7.65;;
65387;SDS011;51992;53.528;49.474;2022-08-23T15:28:50;32.00;;;8.50;;
65387;SDS011;51992;53.528;49.474;2022-08-23T15:31:16;29.63;;;8.38;;
65387;SDS011;51992;53.528;49.474;2022-08-23T15:33:42;29.27;;;8.27;;
65387;SDS011;51992;53.528;49.474;2022-08-23T15:36:09;23.50;;;7.90;;
65387;SDS011;51992;53.528;49.474;2022-08-23T15:38:35;74.90;;;12.20;;
65387;SDS011;51992;53.528;49.474;2022-08-23T15:41:01;44.67;;;10.52;;
65387;SDS011;51992;53.528;49.474;2022-08-23T15:43:27;62.03;;;12.02;;
65387;SDS011;51992;53.528;49.474;2022-08-23T15:45:53;50.72;;;9.07;;
65387;SDS011;51992;53.528;49.474;2022-08-23T15:48:26;206.02;;;18.77;;
65387;SDS011;51992;53.528;49.474;2022-08-23T15:50:52;49.63;;;8.10;;